createdAt,value
2023-04-28T00:02:51.608Z,1005.46
2023-04-28T00:07:51.471Z,1005.44
2023-04-28T00:12:51.421Z,1005.37
2023-04-28T00:17:51.507Z,1005.34
2023-04-28T00:22:51.262Z,1005.36
2023-04-28T00:27:51.210Z,1005.31
2023-04-28T00:32:51.165Z,1005.21
2023-04-28T00:37:51.071Z,1005.18
2023-04-28T00:42:50.995Z,1005.16
2023-04-28T00:47:50.966Z,1004.99
2023-04-28T00:52:50.889Z,1004.94
2023-04-28T00:57:50.802Z,1004.85
2023-04-28T01:02:50.847Z,1004.71
2023-04-28T01:07:50.672Z,1004.67
2023-04-28T01:12:50.598Z,1004.69
2023-04-28T01:17:50.553Z,1004.73
2023-04-28T01:22:50.485Z,1004.71
2023-04-28T01:27:50.437Z,1004.70
2023-04-28T01:32:50.441Z,1004.59
2023-04-28T01:37:50.279Z,1004.58
2023-04-28T01:42:50.218Z,1004.48
2023-04-28T01:47:50.226Z,1004.46
2023-04-28T01:52:50.069Z,1004.44
2023-04-28T01:57:50.018Z,1004.36
2023-04-28T02:02:50.033Z,1004.24
2023-04-28T02:07:49.883Z,1004.25
2023-04-28T02:12:49.801Z,1004.22
2023-04-28T02:17:49.792Z,1004.24
2023-04-28T02:22:49.668Z,1004.06
2023-04-28T02:27:49.613Z,1004.18
2023-04-28T02:32:49.587Z,1004.08
2023-04-28T02:37:49.481Z,1004.04
2023-04-28T02:42:49.398Z,1003.97
2023-04-28T02:47:49.421Z,1003.97
2023-04-28T02:52:49.340Z,1003.84
2023-04-28T02:57:49.212Z,1003.85
2023-04-28T03:02:49.204Z,1003.86
2023-04-28T03:07:49.076Z,1003.76
2023-04-28T03:12:49.022Z,1003.83
2023-04-28T03:17:48.985Z,1003.63
2023-04-28T03:22:48.877Z,1003.56
2023-04-28T03:27:48.826Z,1003.41
2023-04-28T03:32:48.781Z,1003.37
2023-04-28T03:37:48.688Z,1003.27
2023-04-28T03:42:48.612Z,1003.40
2023-04-28T03:47:48.605Z,1003.39
2023-04-28T03:52:48.477Z,1003.35
2023-04-28T03:57:48.421Z,1003.39
2023-04-28T04:02:48.527Z,1003.40
2023-04-28T04:07:48.286Z,1003.28
2023-04-28T04:12:48.218Z,1003.20
2023-04-28T04:17:48.233Z,1003.14
2023-04-28T04:22:48.128Z,1003.17
2023-04-28T04:27:48.117Z,1003.02
2023-04-28T04:32:48.058Z,1003.03
2023-04-28T04:37:48.003Z,1002.90
2023-04-28T04:42:47.885Z,1002.89
2023-04-28T04:47:47.908Z,1002.76
2023-04-28T04:52:47.744Z,1002.73
2023-04-28T04:57:47.709Z,1002.71
2023-04-28T05:02:47.773Z,1002.72
2023-04-28T05:07:47.568Z,1002.62
2023-04-28T05:12:49.180Z,1002.56
2023-04-28T05:17:47.532Z,1002.57
2023-04-28T05:22:47.393Z,1002.45
2023-04-28T05:27:47.288Z,1002.45
2023-04-28T05:32:47.289Z,1002.31
2023-04-28T05:37:47.177Z,1002.20
2023-04-28T05:42:47.081Z,1002.19
2023-04-28T05:47:47.126Z,1002.25
2023-04-28T05:52:46.954Z,1002.18
2023-04-28T05:57:53.085Z,1002.18
2023-04-28T06:02:47.938Z,1002.20
2023-04-28T06:07:48.326Z,1002.12
2023-04-28T06:12:46.710Z,1002.35
2023-04-28T06:17:46.645Z,1002.33
2023-04-28T06:22:46.559Z,1002.33
2023-04-28T06:27:46.491Z,1002.03
2023-04-28T06:32:46.458Z,1001.94
2023-04-28T06:37:46.364Z,1001.96
2023-04-28T06:42:46.407Z,1001.98
2023-04-28T06:47:46.440Z,1001.96
2023-04-28T06:52:46.458Z,1001.96
2023-04-28T06:57:46.257Z,1001.98
2023-04-28T07:02:46.627Z,1001.97
2023-04-28T07:07:45.956Z,1001.87
2023-04-28T07:12:45.874Z,1001.85
2023-04-28T07:17:45.860Z,1001.78
2023-04-28T07:22:45.757Z,1001.70
2023-04-28T07:27:45.648Z,1001.54
2023-04-28T07:32:45.588Z,1001.61
2023-04-28T07:37:45.514Z,1001.55
2023-04-28T07:42:45.439Z,1001.59
2023-04-28T07:47:45.379Z,1001.42
2023-04-28T07:52:45.291Z,1001.38
2023-04-28T07:57:45.228Z,1001.37
2023-04-28T08:02:45.214Z,1001.32
2023-04-28T08:07:45.091Z,1001.23
2023-04-28T08:12:45.023Z,1001.21
2023-04-28T08:17:45.026Z,1001.15
2023-04-28T08:22:44.895Z,1001.16
2023-04-28T08:27:44.870Z,1001.17
2023-04-28T08:32:44.767Z,1001.13
2023-04-28T08:37:44.695Z,1001.04
2023-04-28T08:42:44.605Z,1001.07
2023-04-28T08:47:44.589Z,1000.92
2023-04-28T08:52:44.472Z,1000.95
2023-04-28T08:57:44.582Z,1000.80
2023-04-28T09:02:44.572Z,1000.78
2023-04-28T09:07:44.285Z,1000.78
2023-04-28T09:12:44.219Z,1000.77
2023-04-28T09:17:44.181Z,1000.70
2023-04-28T09:22:44.131Z,1000.79
2023-04-28T09:27:44.020Z,1000.64
2023-04-28T09:32:44.018Z,1000.58
2023-04-28T09:37:43.890Z,1000.67
2023-04-28T09:42:43.817Z,1000.56
2023-04-28T09:47:43.808Z,1000.50
2023-04-28T09:52:43.685Z,1000.54
2023-04-28T09:57:43.618Z,1000.61
2023-04-28T10:02:44.218Z,1000.61
2023-04-28T10:07:43.510Z,1000.51
2023-04-28T10:12:43.411Z,1000.48
2023-04-28T10:17:43.409Z,1000.53
2023-04-28T10:22:43.306Z,1000.57
2023-04-28T10:27:43.223Z,1000.59
2023-04-28T10:32:43.160Z,1000.52
2023-04-28T10:37:43.089Z,1000.62
2023-04-28T10:42:43.040Z,1000.59
2023-04-28T10:47:42.997Z,1000.71
2023-04-28T10:52:42.975Z,1000.76
2023-04-28T10:57:42.835Z,1000.84
2023-04-28T11:02:44.768Z,1000.92
2023-04-28T11:07:42.716Z,1000.93
2023-04-28T11:12:42.658Z,1000.93
2023-04-28T11:17:42.616Z,1000.88
2023-04-28T11:22:42.523Z,1000.89
2023-04-28T11:27:42.426Z,1000.91
2023-04-28T11:32:42.413Z,1000.99
2023-04-28T11:37:42.301Z,1000.99
2023-04-28T11:42:42.219Z,1001.03
2023-04-28T11:47:42.263Z,1001.03
2023-04-28T11:52:42.081Z,1000.99
2023-04-28T11:57:42.042Z,1001.14
2023-04-28T12:02:42.017Z,1000.86
2023-04-28T12:07:41.880Z,1000.87
2023-04-28T12:12:50.936Z,1000.79
2023-04-28T12:17:42.781Z,1000.78
2023-04-28T12:22:41.677Z,1000.71
2023-04-28T12:27:41.627Z,1000.66
2023-04-28T12:32:41.581Z,1000.65
2023-04-28T12:37:41.506Z,1000.58
2023-04-28T12:42:41.407Z,1000.64
2023-04-28T12:47:41.399Z,1000.61
2023-04-28T12:52:41.302Z,1000.58
2023-04-28T12:57:41.213Z,1000.59
2023-04-28T13:02:41.315Z,1000.55
2023-04-28T13:07:41.092Z,1000.55
2023-04-28T13:12:41.003Z,1000.47
2023-04-28T13:17:40.970Z,1000.46
2023-04-28T13:22:40.878Z,1000.36
2023-04-28T13:27:43.148Z,1000.37
2023-04-28T13:32:40.774Z,1000.29
2023-04-28T13:37:40.704Z,1000.14
2023-04-28T13:42:40.611Z,1000.11
2023-04-28T13:47:40.588Z,999.97
2023-04-28T13:52:40.468Z,999.94
2023-04-28T13:57:40.390Z,999.83
2023-04-28T14:02:41.137Z,999.85
2023-04-28T14:07:40.259Z,999.86
2023-04-28T14:12:40.183Z,999.85
2023-04-28T14:17:40.144Z,999.71
2023-04-28T14:22:40.051Z,999.61
2023-04-28T14:27:39.979Z,999.56
2023-04-28T14:32:40.264Z,999.45
2023-04-28T14:37:39.889Z,999.42
2023-04-28T14:42:39.804Z,999.32
2023-04-28T14:47:39.776Z,999.38
2023-04-28T14:52:39.650Z,999.39
2023-04-28T14:57:39.585Z,999.32
2023-04-28T15:02:39.679Z,999.35
2023-04-28T15:07:39.459Z,999.16
2023-04-28T15:12:39.402Z,999.11
2023-04-28T15:17:39.375Z,999.08
2023-04-28T15:22:39.262Z,999.12
2023-04-28T15:27:39.198Z,999.13
2023-04-28T15:32:39.181Z,999.02
2023-04-28T15:37:39.070Z,998.93
2023-04-28T15:42:38.992Z,998.85
2023-04-28T15:47:39.217Z,998.84
2023-04-28T15:52:38.860Z,998.88
2023-04-28T15:57:38.804Z,998.75
2023-04-28T16:02:39.333Z,998.80
2023-04-28T16:07:47.121Z,998.75
2023-04-28T16:12:38.997Z,998.69
2023-04-28T16:17:38.801Z,998.70
2023-04-28T16:22:38.488Z,998.74
2023-04-28T16:27:38.440Z,998.74
2023-04-28T16:32:38.792Z,998.69
2023-04-28T16:37:38.446Z,998.65
2023-04-28T16:42:38.250Z,998.46
2023-04-28T16:47:38.220Z,998.48
2023-04-28T16:52:38.235Z,998.48
2023-04-28T16:57:40.180Z,998.38
2023-04-28T17:02:38.166Z,998.39
2023-04-28T17:07:38.337Z,998.37
2023-04-28T17:12:37.980Z,998.33
2023-04-28T17:17:38.759Z,998.31
2023-04-28T17:22:37.846Z,998.21
2023-04-28T17:27:37.653Z,998.25
2023-04-28T17:32:37.665Z,998.19
2023-04-28T17:37:37.509Z,998.20
2023-04-28T17:42:37.439Z,998.20
2023-04-28T17:47:37.389Z,998.12
2023-04-28T17:52:37.314Z,998.11
2023-04-28T17:57:37.271Z,998.10
2023-04-28T18:02:37.287Z,998.20
2023-04-28T18:07:37.104Z,998.28
2023-04-28T18:12:37.038Z,998.20
2023-04-28T18:17:37.030Z,998.23
2023-04-28T18:22:36.928Z,998.29
2023-04-28T18:27:36.809Z,998.24
2023-04-28T18:32:36.909Z,998.28
2023-04-28T18:37:36.712Z,998.26
2023-04-28T18:42:36.664Z,998.20
2023-04-28T18:47:36.640Z,998.37
2023-04-28T18:52:36.495Z,998.21
2023-04-28T18:57:36.427Z,998.30
2023-04-28T19:02:36.406Z,998.43
2023-04-28T19:07:36.295Z,998.45
2023-04-28T19:12:36.217Z,998.34
2023-04-28T19:17:38.208Z,998.35
2023-04-28T19:22:36.077Z,998.36
2023-04-28T19:27:35.982Z,998.28
2023-04-28T19:32:35.942Z,998.34
2023-04-28T19:37:36.129Z,998.29
2023-04-28T19:42:36.370Z,998.28
2023-04-28T19:47:35.824Z,998.23
2023-04-28T19:52:35.664Z,998.21
2023-04-28T19:57:35.597Z,998.16
2023-04-28T20:02:35.673Z,998.18
2023-04-28T20:07:35.436Z,998.15
2023-04-28T20:12:35.420Z,998.11
2023-04-28T20:17:35.362Z,998.00
2023-04-28T20:22:35.267Z,998.10
2023-04-28T20:27:35.177Z,998.12
2023-04-28T20:32:35.156Z,998.05
2023-04-28T20:37:35.042Z,997.92
2023-04-28T20:42:34.968Z,997.82
2023-04-28T20:47:34.950Z,997.72
2023-04-28T20:52:34.854Z,997.70
2023-04-28T20:57:34.758Z,997.72
2023-04-28T21:02:34.851Z,997.67
2023-04-28T21:07:34.644Z,997.81
2023-04-28T21:12:34.560Z,997.67
2023-04-28T21:17:34.508Z,997.78
2023-04-28T21:22:34.418Z,997.74
2023-04-28T21:27:34.347Z,997.70
2023-04-28T21:32:34.339Z,997.80
2023-04-28T21:37:34.229Z,997.68
2023-04-28T21:42:34.154Z,997.68
2023-04-28T21:47:34.112Z,997.69
2023-04-28T21:52:34.013Z,997.57
2023-04-28T21:57:33.938Z,997.71
2023-04-28T22:02:33.956Z,997.70
2023-04-28T22:07:33.818Z,997.65
2023-04-28T22:12:33.768Z,997.54
2023-04-28T22:17:33.719Z,997.46
2023-04-28T22:22:33.627Z,997.39
2023-04-28T22:27:33.550Z,997.33
2023-04-28T22:32:33.519Z,997.24
2023-04-28T22:37:33.415Z,997.39
2023-04-28T22:42:33.406Z,997.46
2023-04-28T22:47:33.309Z,997.59
2023-04-28T22:52:33.243Z,997.54
2023-04-28T22:57:33.198Z,997.51
2023-04-28T23:02:33.346Z,997.47
2023-04-28T23:07:33.133Z,997.45
2023-04-28T23:12:33.105Z,997.25
2023-04-28T23:17:33.009Z,997.24
2023-04-28T23:22:32.930Z,997.14
2023-04-28T23:27:32.869Z,997.05
2023-04-28T23:32:32.791Z,997.06
2023-04-28T23:37:32.735Z,996.89
2023-04-28T23:42:32.580Z,996.86
2023-04-28T23:47:32.546Z,996.88
2023-04-28T23:52:32.483Z,997.09
2023-04-28T23:57:32.438Z,997.06
